Buena Vista, Wisconsin
Current Conditions -  °F | °C
As of 3:55 PM on Saturday 25 Oct 2014 (Local Time) from KSTE Reporting Station
Clear Clear  
Wind Chill: 15°   Ceiling: Unl
Heat Index: 15°   Visibility: 10mi
Dew Point: -2°   Wind: 22mph
Humidity: 32%   Direction: 260°W
Pressure: 29.9"   Gusts: 32mph
Location:  44.4117°N, 89.5378°W
Report Text: KSTE 252055Z AUTO 26019G28KT 10SM CLR 15/M02 A2990 RMK AO2 T01481020
Loading
Personal Weather Stations






























Interactive Weather Map
Tropical Storm Tracking
New forecast layout! Learn more

10-Day Weather Forecast

Advertisements
Track Severe Weather on mobile